sensor_id;sensor_type;location;lat;lon;timestamp;temperature;humidity
31113;DHT22;17763;48.730;9.136;2022-10-26T00:00:41;13.90;99.90
31113;DHT22;17763;48.730;9.136;2022-10-26T00:03:06;13.80;99.90
31113;DHT22;17763;48.730;9.136;2022-10-26T00:05:33;13.90;99.90
31113;DHT22;17763;48.730;9.136;2022-10-26T00:08:02;13.90;99.90
31113;DHT22;17763;48.730;9.136;2022-10-26T00:10:28;13.90;99.90
31113;DHT22;17763;48.730;9.136;2022-10-26T00:12:53;13.90;99.90
31113;DHT22;17763;48.730;9.136;2022-10-26T00:15:21;13.90;99.90
31113;DHT22;17763;48.730;9.136;2022-10-26T00:17:47;13.90;99.90
31113;DHT22;17763;48.730;9.136;2022-10-26T00:20:15;13.90;99.90
31113;DHT22;17763;48.730;9.136;2022-10-26T00:22:41;13.90;99.90
31113;DHT22;17763;48.730;9.136;2022-10-26T00:25:11;13.90;99.90
31113;DHT22;17763;48.730;9.136;2022-10-26T00:27:39;13.90;99.90
31113;DHT22;17763;48.730;9.136;2022-10-26T00:30:06;13.90;99.90
31113;DHT22;17763;48.730;9.136;2022-10-26T00:32:32;13.90;99.90
31113;DHT22;17763;48.730;9.136;2022-10-26T00:34:59;13.80;99.90
31113;DHT22;17763;48.730;9.136;2022-10-26T00:37:29;13.90;99.90
31113;DHT22;17763;48.730;9.136;2022-10-26T00:39:57;13.80;99.90
31113;DHT22;17763;48.730;9.136;2022-10-26T00:42:25;13.90;99.90
31113;DHT22;17763;48.730;9.136;2022-10-26T00:45:03;13.80;99.90
31113;DHT22;17763;48.730;9.136;2022-10-26T00:47:49;13.80;99.90
31113;DHT22;17763;48.730;9.136;2022-10-26T00:50:23;13.90;99.90
31113;DHT22;17763;48.730;9.136;2022-10-26T00:52:52;13.90;99.90
31113;DHT22;17763;48.730;9.136;2022-10-26T00:55:21;13.90;99.90
31113;DHT22;17763;48.730;9.136;2022-10-26T00:57:50;13.90;99.90
31113;DHT22;17763;48.730;9.136;2022-10-26T01:00:16;13.90;99.90
31113;DHT22;17763;48.730;9.136;2022-10-26T01:02:43;13.90;99.90
31113;DHT22;17763;48.730;9.136;2022-10-26T01:05:14;13.90;99.90
31113;DHT22;17763;48.730;9.136;2022-10-26T01:07:41;13.90;99.90
31113;DHT22;17763;48.730;9.136;2022-10-26T01:10:08;13.90;99.90
31113;DHT22;17763;48.730;9.136;2022-10-26T01:12:37;14.00;99.90
31113;DHT22;17763;48.730;9.136;2022-10-26T01:15:03;13.90;99.90
31113;DHT22;17763;48.730;9.136;2022-10-26T01:20:43;13.90;99.90
31113;DHT22;17763;48.730;9.136;2022-10-26T01:31:47;14.00;99.90
31113;DHT22;17763;48.730;9.136;2022-10-26T01:34:33;13.90;99.90
31113;DHT22;17763;48.730;9.136;2022-10-26T01:37:27;13.90;99.90
31113;DHT22;17763;48.730;9.136;2022-10-26T01:40:05;13.90;99.90
31113;DHT22;17763;48.730;9.136;2022-10-26T01:42:35;13.90;99.90
31113;DHT22;17763;48.730;9.136;2022-10-26T01:45:06;13.90;99.90
31113;DHT22;17763;48.730;9.136;2022-10-26T01:47:35;13.90;99.90
31113;DHT22;17763;48.730;9.136;2022-10-26T01:50:10;14.00;99.90
31113;DHT22;17763;48.730;9.136;2022-10-26T01:52:39;14.00;99.90
31113;DHT22;17763;48.730;9.136;2022-10-26T01:55:36;14.00;99.90
31113;DHT22;17763;48.730;9.136;2022-10-26T01:57:56;14.00;99.90
31113;DHT22;17763;48.730;9.136;2022-10-26T02:00:29;14.00;99.90
31113;DHT22;17763;48.730;9.136;2022-10-26T02:03:14;14.10;99.90
31113;DHT22;17763;48.730;9.136;2022-10-26T02:06:05;14.00;99.90
31113;DHT22;17763;48.730;9.136;2022-10-26T02:08:49;14.00;99.90
31113;DHT22;17763;48.730;9.136;2022-10-26T02:19:09;14.00;99.90
31113;DHT22;17763;48.730;9.136;2022-10-26T02:21:45;14.10;99.90
31113;DHT22;17763;48.730;9.136;2022-10-26T02:24:14;14.10;99.90
31113;DHT22;17763;48.730;9.136;2022-10-26T02:26:46;14.10;99.90
31113;DHT22;17763;48.730;9.136;2022-10-26T02:29:17;14.10;99.90
31113;DHT22;17763;48.730;9.136;2022-10-26T02:31:46;14.10;99.90
31113;DHT22;17763;48.730;9.136;2022-10-26T02:34:19;14.00;99.90
31113;DHT22;17763;48.730;9.136;2022-10-26T02:36:52;14.10;99.90
31113;DHT22;17763;48.730;9.136;2022-10-26T02:39:21;14.10;99.90
31113;DHT22;17763;48.730;9.136;2022-10-26T02:41:50;14.00;99.90
31113;DHT22;17763;48.730;9.136;2022-10-26T02:44:22;14.10;99.90
31113;DHT22;17763;48.730;9.136;2022-10-26T02:46:50;14.00;99.90
31113;DHT22;17763;48.730;9.136;2022-10-26T02:49:18;14.00;99.90
31113;DHT22;17763;48.730;9.136;2022-10-26T02:57:19;14.00;99.90
31113;DHT22;17763;48.730;9.136;2022-10-26T02:59:48;14.00;99.90
31113;DHT22;17763;48.730;9.136;2022-10-26T03:02:18;14.00;99.90
31113;DHT22;17763;48.730;9.136;2022-10-26T03:04:46;14.00;99.90
31113;DHT22;17763;48.730;9.136;2022-10-26T03:07:22;14.00;99.90
31113;DHT22;17763;48.730;9.136;2022-10-26T03:09:50;14.00;99.90
31113;DHT22;17763;48.730;9.136;2022-10-26T03:12:19;14.00;99.90
31113;DHT22;17763;48.730;9.136;2022-10-26T03:14:45;14.00;99.90
31113;DHT22;17763;48.730;9.136;2022-10-26T03:17:13;14.00;99.90
31113;DHT22;17763;48.730;9.136;2022-10-26T03:19:39;14.00;99.90
31113;DHT22;17763;48.730;9.136;2022-10-26T03:22:04;14.00;99.90
31113;DHT22;17763;48.730;9.136;2022-10-26T03:24:30;14.00;99.90
31113;DHT22;17763;48.730;9.136;2022-10-26T03:26:56;14.10;99.90
31113;DHT22;17763;48.730;9.136;2022-10-26T03:29:22;14.10;99.90
31113;DHT22;17763;48.730;9.136;2022-10-26T03:31:48;14.00;99.90
31113;DHT22;17763;48.730;9.136;2022-10-26T03:34:20;14.00;99.90
31113;DHT22;17763;48.730;9.136;2022-10-26T03:36:46;14.10;99.90
31113;DHT22;17763;48.730;9.136;2022-10-26T03:39:15;14.00;99.90
31113;DHT22;17763;48.730;9.136;2022-10-26T03:41:45;14.00;99.90
31113;DHT22;17763;48.730;9.136;2022-10-26T03:44:12;14.10;99.90
31113;DHT22;17763;48.730;9.136;2022-10-26T03:46:40;14.00;99.90
31113;DHT22;17763;48.730;9.136;2022-10-26T03:49:06;14.10;99.90
31113;DHT22;17763;48.730;9.136;2022-10-26T03:51:31;14.10;99.90
31113;DHT22;17763;48.730;9.136;2022-10-26T03:53:57;14.10;99.90
31113;DHT22;17763;48.730;9.136;2022-10-26T03:56:23;14.10;99.90
31113;DHT22;17763;48.730;9.136;2022-10-26T03:58:51;14.20;99.90
31113;DHT22;17763;48.730;9.136;2022-10-26T04:01:17;14.20;99.90
31113;DHT22;17763;48.730;9.136;2022-10-26T04:03:43;14.20;99.90
31113;DHT22;17763;48.730;9.136;2022-10-26T04:06:11;14.20;99.90
31113;DHT22;17763;48.730;9.136;2022-10-26T04:08:36;14.20;99.90
31113;DHT22;17763;48.730;9.136;2022-10-26T04:11:02;14.20;99.90
31113;DHT22;17763;48.730;9.136;2022-10-26T04:13:28;14.20;99.90
31113;DHT22;17763;48.730;9.136;2022-10-26T04:15:53;14.30;99.90
31113;DHT22;17763;48.730;9.136;2022-10-26T04:18:19;14.30;99.90
31113;DHT22;17763;48.730;9.136;2022-10-26T04:20:45;14.30;99.90
31113;DHT22;17763;48.730;9.136;2022-10-26T04:23:12;14.30;99.90
31113;DHT22;17763;48.730;9.136;2022-10-26T04:25:39;14.30;99.90
31113;DHT22;17763;48.730;9.136;2022-10-26T04:28:10;14.40;99.90
31113;DHT22;17763;48.730;9.136;2022-10-26T04:30:37;14.40;99.90
31113;DHT22;17763;48.730;9.136;2022-10-26T04:33:06;14.40;99.90
31113;DHT22;17763;48.730;9.136;2022-10-26T04:35:33;14.30;99.90
31113;DHT22;17763;48.730;9.136;2022-10-26T04:38:00;14.30;99.90
31113;DHT22;17763;48.730;9.136;2022-10-26T04:40:30;14.30;99.90
31113;DHT22;17763;48.730;9.136;2022-10-26T04:42:56;14.30;99.90
31113;DHT22;17763;48.730;9.136;2022-10-26T04:45:22;14.30;99.90
31113;DHT22;17763;48.730;9.136;2022-10-26T04:48:09;14.30;99.90
31113;DHT22;17763;48.730;9.136;2022-10-26T04:50:37;14.30;99.90
31113;DHT22;17763;48.730;9.136;2022-10-26T04:53:07;14.20;99.90
31113;DHT22;17763;48.730;9.136;2022-10-26T04:55:33;14.20;99.90
31113;DHT22;17763;48.730;9.136;2022-10-26T04:57:59;14.30;99.90
31113;DHT22;17763;48.730;9.136;2022-10-26T05:00:25;14.20;99.90
31113;DHT22;17763;48.730;9.136;2022-10-26T05:02:57;14.20;99.90
31113;DHT22;17763;48.730;9.136;2022-10-26T05:05:25;14.30;99.90
31113;DHT22;17763;48.730;9.136;2022-10-26T05:07:56;14.30;99.90
31113;DHT22;17763;48.730;9.136;2022-10-26T05:10:23;14.30;99.90
31113;DHT22;17763;48.730;9.136;2022-10-26T05:12:54;14.30;99.90
31113;DHT22;17763;48.730;9.136;2022-10-26T05:15:20;14.30;99.90
31113;DHT22;17763;48.730;9.136;2022-10-26T05:17:46;14.30;99.90
31113;DHT22;17763;48.730;9.136;2022-10-26T05:20:12;14.30;99.90
31113;DHT22;17763;48.730;9.136;2022-10-26T05:22:41;14.40;99.90
31113;DHT22;17763;48.730;9.136;2022-10-26T05:25:07;14.40;99.90
31113;DHT22;17763;48.730;9.136;2022-10-26T05:27:33;14.40;99.90
31113;DHT22;17763;48.730;9.136;2022-10-26T05:29:59;14.40;99.90
31113;DHT22;17763;48.730;9.136;2022-10-26T05:32:24;14.40;99.90
31113;DHT22;17763;48.730;9.136;2022-10-26T05:34:50;14.40;99.90
31113;DHT22;17763;48.730;9.136;2022-10-26T05:37:16;14.40;99.90
31113;DHT22;17763;48.730;9.136;2022-10-26T05:39:41;14.40;99.90
31113;DHT22;17763;48.730;9.136;2022-10-26T05:42:08;14.40;99.90
31113;DHT22;17763;48.730;9.136;2022-10-26T05:44:33;14.40;99.90
31113;DHT22;17763;48.730;9.136;2022-10-26T05:46:59;14.40;99.90
31113;DHT22;17763;48.730;9.136;2022-10-26T05:49:27;14.40;99.90
31113;DHT22;17763;48.730;9.136;2022-10-26T05:51:52;14.40;99.90
31113;DHT22;17763;48.730;9.136;2022-10-26T05:54:18;14.40;99.90
31113;DHT22;17763;48.730;9.136;2022-10-26T05:56:44;14.40;99.90
31113;DHT22;17763;48.730;9.136;2022-10-26T05:59:14;14.40;99.90
31113;DHT22;17763;48.730;9.136;2022-10-26T06:06:46;14.40;99.90
31113;DHT22;17763;48.730;9.136;2022-10-26T06:09:18;14.40;99.90
31113;DHT22;17763;48.730;9.136;2022-10-26T06:11:47;14.50;99.90
31113;DHT22;17763;48.730;9.136;2022-10-26T06:14:14;14.50;99.90
31113;DHT22;17763;48.730;9.136;2022-10-26T06:16:53;14.40;99.90
31113;DHT22;17763;48.730;9.136;2022-10-26T06:25:24;14.50;99.90
31113;DHT22;17763;48.730;9.136;2022-10-26T06:28:11;14.50;99.90
31113;DHT22;17763;48.730;9.136;2022-10-26T06:30:40;14.60;99.90
31113;DHT22;17763;48.730;9.136;2022-10-26T06:33:09;14.60;99.90
31113;DHT22;17763;48.730;9.136;2022-10-26T06:35:50;14.60;99.90
31113;DHT22;17763;48.730;9.136;2022-10-26T06:38:20;14.60;99.90
31113;DHT22;17763;48.730;9.136;2022-10-26T06:40:51;14.60;99.90
31113;DHT22;17763;48.730;9.136;2022-10-26T06:48:53;14.60;99.90
31113;DHT22;17763;48.730;9.136;2022-10-26T06:51:22;14.70;99.90
31113;DHT22;17763;48.730;9.136;2022-10-26T06:56:37;14.70;99.90
31113;DHT22;17763;48.730;9.136;2022-10-26T06:59:21;14.70;99.90
31113;DHT22;17763;48.730;9.136;2022-10-26T07:01:51;14.70;99.90
31113;DHT22;17763;48.730;9.136;2022-10-26T07:04:17;14.80;99.90
31113;DHT22;17763;48.730;9.136;2022-10-26T07:06:45;14.80;99.90
31113;DHT22;17763;48.730;9.136;2022-10-26T07:09:13;14.80;99.90
31113;DHT22;17763;48.730;9.136;2022-10-26T07:11:38;14.90;99.90
31113;DHT22;17763;48.730;9.136;2022-10-26T07:14:06;14.90;99.90
31113;DHT22;17763;48.730;9.136;2022-10-26T07:16:34;14.90;99.90
31113;DHT22;17763;48.730;9.136;2022-10-26T07:19:02;14.90;99.90
31113;DHT22;17763;48.730;9.136;2022-10-26T07:21:28;15.00;99.90
31113;DHT22;17763;48.730;9.136;2022-10-26T07:23:54;15.00;99.90
31113;DHT22;17763;48.730;9.136;2022-10-26T07:26:22;15.00;99.90
31113;DHT22;17763;48.730;9.136;2022-10-26T07:28:52;15.00;99.90
31113;DHT22;17763;48.730;9.136;2022-10-26T07:31:20;15.00;99.90
31113;DHT22;17763;48.730;9.136;2022-10-26T07:33:46;15.10;99.90
31113;DHT22;17763;48.730;9.136;2022-10-26T07:36:13;15.10;99.90
31113;DHT22;17763;48.730;9.136;2022-10-26T07:38:39;15.10;99.90
31113;DHT22;17763;48.730;9.136;2022-10-26T07:41:09;15.10;99.90
31113;DHT22;17763;48.730;9.136;2022-10-26T07:43:35;15.10;99.90
31113;DHT22;17763;48.730;9.136;2022-10-26T07:46:01;15.20;99.90
31113;DHT22;17763;48.730;9.136;2022-10-26T07:48:29;15.20;99.90
31113;DHT22;17763;48.730;9.136;2022-10-26T07:50:54;15.20;99.90
31113;DHT22;17763;48.730;9.136;2022-10-26T07:53:23;15.20;99.90
31113;DHT22;17763;48.730;9.136;2022-10-26T07:55:53;15.20;99.90
31113;DHT22;17763;48.730;9.136;2022-10-26T07:58:19;15.20;99.90
31113;DHT22;17763;48.730;9.136;2022-10-26T08:00:51;15.20;99.90
31113;DHT22;17763;48.730;9.136;2022-10-26T08:03:17;15.20;99.90
31113;DHT22;17763;48.730;9.136;2022-10-26T08:05:47;15.30;99.90
31113;DHT22;17763;48.730;9.136;2022-10-26T08:08:16;15.20;99.90
31113;DHT22;17763;48.730;9.136;2022-10-26T08:10:43;15.30;99.90
31113;DHT22;17763;48.730;9.136;2022-10-26T08:13:09;15.30;99.90
31113;DHT22;17763;48.730;9.136;2022-10-26T08:15:35;15.30;99.90
31113;DHT22;17763;48.730;9.136;2022-10-26T08:18:03;15.30;99.90
31113;DHT22;17763;48.730;9.136;2022-10-26T08:20:29;15.30;99.90
31113;DHT22;17763;48.730;9.136;2022-10-26T08:22:56;15.30;99.90
31113;DHT22;17763;48.730;9.136;2022-10-26T08:25:21;15.30;99.90
31113;DHT22;17763;48.730;9.136;2022-10-26T08:27:48;15.30;99.90
31113;DHT22;17763;48.730;9.136;2022-10-26T08:30:16;15.30;99.90
31113;DHT22;17763;48.730;9.136;2022-10-26T08:32:45;15.30;99.90
31113;DHT22;17763;48.730;9.136;2022-10-26T08:35:13;15.40;99.90
31113;DHT22;17763;48.730;9.136;2022-10-26T08:37:38;15.40;99.90
31113;DHT22;17763;48.730;9.136;2022-10-26T08:40:10;15.40;99.90
31113;DHT22;17763;48.730;9.136;2022-10-26T08:42:42;15.40;99.90
31113;DHT22;17763;48.730;9.136;2022-10-26T08:47:46;15.50;99.90
31113;DHT22;17763;48.730;9.136;2022-10-26T08:50:24;15.50;99.90
31113;DHT22;17763;48.730;9.136;2022-10-26T08:53:30;15.50;99.90
31113;DHT22;17763;48.730;9.136;2022-10-26T08:56:12;15.50;99.90
31113;DHT22;17763;48.730;9.136;2022-10-26T08:58:47;15.60;99.90
31113;DHT22;17763;48.730;9.136;2022-10-26T09:01:19;15.60;99.90
31113;DHT22;17763;48.730;9.136;2022-10-26T09:03:45;15.60;99.90
31113;DHT22;17763;48.730;9.136;2022-10-26T09:06:19;15.70;99.90
31113;DHT22;17763;48.730;9.136;2022-10-26T09:09:04;15.70;99.90
31113;DHT22;17763;48.730;9.136;2022-10-26T09:12:02;15.70;99.90
31113;DHT22;17763;48.730;9.136;2022-10-26T09:20:03;15.80;99.90
31113;DHT22;17763;48.730;9.136;2022-10-26T09:23:37;15.90;99.90
31113;DHT22;17763;48.730;9.136;2022-10-26T09:25:44;15.90;99.90
31113;DHT22;17763;48.730;9.136;2022-10-26T09:28:16;16.00;99.90
31113;DHT22;17763;48.730;9.136;2022-10-26T09:30:44;16.00;99.90
31113;DHT22;17763;48.730;9.136;2022-10-26T09:33:21;16.10;99.90
31113;DHT22;17763;48.730;9.136;2022-10-26T09:36:00;16.10;99.90
31113;DHT22;17763;48.730;9.136;2022-10-26T09:38:55;16.20;99.90
31113;DHT22;17763;48.730;9.136;2022-10-26T09:41:45;16.20;99.90
31113;DHT22;17763;48.730;9.136;2022-10-26T09:44:52;16.30;99.90
31113;DHT22;17763;48.730;9.136;2022-10-26T09:49:51;16.40;99.90
31113;DHT22;17763;48.730;9.136;2022-10-26T09:52:20;16.50;99.90
31113;DHT22;17763;48.730;9.136;2022-10-26T09:54:45;16.60;99.90
31113;DHT22;17763;48.730;9.136;2022-10-26T09:57:15;16.80;99.90
31113;DHT22;17763;48.730;9.136;2022-10-26T09:59:44;16.90;99.90
31113;DHT22;17763;48.730;9.136;2022-10-26T10:02:40;17.00;99.90
31113;DHT22;17763;48.730;9.136;2022-10-26T10:07:49;17.30;99.90
31113;DHT22;17763;48.730;9.136;2022-10-26T10:10:20;17.30;99.90
31113;DHT22;17763;48.730;9.136;2022-10-26T10:12:48;17.40;99.90
31113;DHT22;17763;48.730;9.136;2022-10-26T10:15:23;17.40;99.90
31113;DHT22;17763;48.730;9.136;2022-10-26T10:17:50;17.40;99.90
31113;DHT22;17763;48.730;9.136;2022-10-26T10:20:31;17.40;99.90
31113;DHT22;17763;48.730;9.136;2022-10-26T10:23:01;17.50;99.90
31113;DHT22;17763;48.730;9.136;2022-10-26T10:25:36;17.50;99.90
31113;DHT22;17763;48.730;9.136;2022-10-26T10:28:31;17.50;99.90
31113;DHT22;17763;48.730;9.136;2022-10-26T10:31:49;17.60;99.90
31113;DHT22;17763;48.730;9.136;2022-10-26T10:33:58;17.60;99.90
31113;DHT22;17763;48.730;9.136;2022-10-26T10:36:26;17.70;99.90
31113;DHT22;17763;48.730;9.136;2022-10-26T10:38:57;17.80;99.90
31113;DHT22;17763;48.730;9.136;2022-10-26T10:41:35;17.80;99.90
31113;DHT22;17763;48.730;9.136;2022-10-26T10:46:34;17.90;99.90
31113;DHT22;17763;48.730;9.136;2022-10-26T10:49:15;17.90;99.90
31113;DHT22;17763;48.730;9.136;2022-10-26T10:51:42;18.00;99.90
31113;DHT22;17763;48.730;9.136;2022-10-26T10:57:18;18.10;99.90
31113;DHT22;17763;48.730;9.136;2022-10-26T11:00:03;18.20;99.90
31113;DHT22;17763;48.730;9.136;2022-10-26T11:08:25;18.30;99.90
31113;DHT22;17763;48.730;9.136;2022-10-26T11:11:26;18.30;99.90
31113;DHT22;17763;48.730;9.136;2022-10-26T11:14:01;18.40;99.90
31113;DHT22;17763;48.730;9.136;2022-10-26T11:16:35;18.50;99.90
31113;DHT22;17763;48.730;9.136;2022-10-26T11:19:27;18.60;99.90
31113;DHT22;17763;48.730;9.136;2022-10-26T11:21:54;18.60;99.90
31113;DHT22;17763;48.730;9.136;2022-10-26T11:32:22;18.70;99.90
31113;DHT22;17763;48.730;9.136;2022-10-26T11:37:31;18.80;99.90
31113;DHT22;17763;48.730;9.136;2022-10-26T11:43:34;18.80;99.90
31113;DHT22;17763;48.730;9.136;2022-10-26T11:46:06;18.90;99.90
31113;DHT22;17763;48.730;9.136;2022-10-26T11:48:46;18.90;99.90
31113;DHT22;17763;48.730;9.136;2022-10-26T11:51:35;18.90;99.90
31113;DHT22;17763;48.730;9.136;2022-10-26T11:54:09;19.00;99.90
31113;DHT22;17763;48.730;9.136;2022-10-26T11:56:40;19.00;99.90
31113;DHT22;17763;48.730;9.136;2022-10-26T11:59:19;19.00;99.90
31113;DHT22;17763;48.730;9.136;2022-10-26T12:01:57;19.10;99.90
31113;DHT22;17763;48.730;9.136;2022-10-26T12:04:29;19.10;99.90
31113;DHT22;17763;48.730;9.136;2022-10-26T12:06:56;19.10;99.90
31113;DHT22;17763;48.730;9.136;2022-10-26T12:09:30;19.10;99.90
31113;DHT22;17763;48.730;9.136;2022-10-26T12:22:55;19.10;99.90
31113;DHT22;17763;48.730;9.136;2022-10-26T12:25:23;19.10;99.90
31113;DHT22;17763;48.730;9.136;2022-10-26T12:27:52;19.20;99.90
31113;DHT22;17763;48.730;9.136;2022-10-26T12:35:38;19.20;99.90
31113;DHT22;17763;48.730;9.136;2022-10-26T12:48:49;19.30;99.90
31113;DHT22;17763;48.730;9.136;2022-10-26T12:56:54;19.40;99.90
31113;DHT22;17763;48.730;9.136;2022-10-26T13:07:38;19.60;99.70
31113;DHT22;17763;48.730;9.136;2022-10-26T13:12:58;19.70;99.40
31113;DHT22;17763;48.730;9.136;2022-10-26T13:15:38;19.70;99.40
31113;DHT22;17763;48.730;9.136;2022-10-26T13:18:16;19.70;99.70
31113;DHT22;17763;48.730;9.136;2022-10-26T13:21:07;19.80;99.80
31113;DHT22;17763;48.730;9.136;2022-10-26T13:23:37;19.80;99.70
31113;DHT22;17763;48.730;9.136;2022-10-26T13:26:12;19.90;99.50
31113;DHT22;17763;48.730;9.136;2022-10-26T13:31:11;20.50;98.50
31113;DHT22;17763;48.730;9.136;2022-10-26T13:33:42;20.80;97.80
31113;DHT22;17763;48.730;9.136;2022-10-26T13:36:26;20.90;97.40
31113;DHT22;17763;48.730;9.136;2022-10-26T13:38:54;21.00;97.10
31113;DHT22;17763;48.730;9.136;2022-10-26T13:41:45;20.90;96.90
31113;DHT22;17763;48.730;9.136;2022-10-26T13:47:05;21.10;96.50
31113;DHT22;17763;48.730;9.136;2022-10-26T13:49:40;21.50;95.90
31113;DHT22;17763;48.730;9.136;2022-10-26T13:52:53;21.90;94.80
31113;DHT22;17763;48.730;9.136;2022-10-26T13:55:39;22.30;93.90
31113;DHT22;17763;48.730;9.136;2022-10-26T13:58:15;22.70;92.80
31113;DHT22;17763;48.730;9.136;2022-10-26T14:01:11;22.80;91.70
31113;DHT22;17763;48.730;9.136;2022-10-26T14:03:40;22.80;91.00
31113;DHT22;17763;48.730;9.136;2022-10-26T14:08:56;22.50;89.60
31113;DHT22;17763;48.730;9.136;2022-10-26T14:11:30;22.20;88.90
31113;DHT22;17763;48.730;9.136;2022-10-26T14:14:00;21.80;89.50
31113;DHT22;17763;48.730;9.136;2022-10-26T14:16:29;21.60;90.10
31113;DHT22;17763;48.730;9.136;2022-10-26T14:18:56;21.30;90.40
31113;DHT22;17763;48.730;9.136;2022-10-26T14:21:22;21.20;90.60
31113;DHT22;17763;48.730;9.136;2022-10-26T14:23:59;21.10;91.10
31113;DHT22;17763;48.730;9.136;2022-10-26T14:26:44;21.00;91.60
31113;DHT22;17763;48.730;9.136;2022-10-26T14:29:15;21.00;92.00
31113;DHT22;17763;48.730;9.136;2022-10-26T14:31:45;21.00;92.00
31113;DHT22;17763;48.730;9.136;2022-10-26T14:34:17;21.00;91.70
31113;DHT22;17763;48.730;9.136;2022-10-26T14:39:34;20.80;91.70
31113;DHT22;17763;48.730;9.136;2022-10-26T14:42:14;20.80;91.90
31113;DHT22;17763;48.730;9.136;2022-10-26T14:44:44;20.70;92.30
31113;DHT22;17763;48.730;9.136;2022-10-26T14:47:32;20.70;92.10
31113;DHT22;17763;48.730;9.136;2022-10-26T14:50:00;20.70;92.30
31113;DHT22;17763;48.730;9.136;2022-10-26T14:52:30;20.70;92.30
31113;DHT22;17763;48.730;9.136;2022-10-26T14:55:11;20.60;92.40
31113;DHT22;17763;48.730;9.136;2022-10-26T14:57:42;20.70;92.50
31113;DHT22;17763;48.730;9.136;2022-10-26T15:00:20;20.70;92.60
31113;DHT22;17763;48.730;9.136;2022-10-26T15:02:51;20.70;92.60
31113;DHT22;17763;48.730;9.136;2022-10-26T15:07:52;20.70;92.70
31113;DHT22;17763;48.730;9.136;2022-10-26T15:15:54;20.90;91.60
31113;DHT22;17763;48.730;9.136;2022-10-26T15:20:56;20.90;91.30
31113;DHT22;17763;48.730;9.136;2022-10-26T15:23:25;20.90;91.40
31113;DHT22;17763;48.730;9.136;2022-10-26T15:25:57;20.80;91.60
31113;DHT22;17763;48.730;9.136;2022-10-26T15:31:27;20.70;92.00
31113;DHT22;17763;48.730;9.136;2022-10-26T15:36:20;20.60;92.40
31113;DHT22;17763;48.730;9.136;2022-10-26T15:38:47;20.50;92.50
31113;DHT22;17763;48.730;9.136;2022-10-26T15:41:45;20.50;92.70
31113;DHT22;17763;48.730;9.136;2022-10-26T15:44:16;20.50;93.00
31113;DHT22;17763;48.730;9.136;2022-10-26T15:46:43;20.50;93.10
31113;DHT22;17763;48.730;9.136;2022-10-26T15:49:19;20.50;93.30
31113;DHT22;17763;48.730;9.136;2022-10-26T15:51:46;20.40;93.30
31113;DHT22;17763;48.730;9.136;2022-10-26T15:54:12;20.40;93.50
31113;DHT22;17763;48.730;9.136;2022-10-26T15:56:41;20.40;93.60
31113;DHT22;17763;48.730;9.136;2022-10-26T15:59:15;20.30;93.80
31113;DHT22;17763;48.730;9.136;2022-10-26T16:01:41;20.30;93.90
31113;DHT22;17763;48.730;9.136;2022-10-26T16:04:08;20.20;94.00
31113;DHT22;17763;48.730;9.136;2022-10-26T16:06:35;20.20;94.10
31113;DHT22;17763;48.730;9.136;2022-10-26T16:09:05;20.20;94.30
31113;DHT22;17763;48.730;9.136;2022-10-26T16:11:34;20.10;94.50
31113;DHT22;17763;48.730;9.136;2022-10-26T16:13:59;20.10;94.60
31113;DHT22;17763;48.730;9.136;2022-10-26T16:16:27;20.00;94.80
31113;DHT22;17763;48.730;9.136;2022-10-26T16:18:54;20.00;95.00
31113;DHT22;17763;48.730;9.136;2022-10-26T16:21:23;20.00;95.20
31113;DHT22;17763;48.730;9.136;2022-10-26T16:23:54;19.90;95.30
31113;DHT22;17763;48.730;9.136;2022-10-26T16:26:22;19.90;95.50
31113;DHT22;17763;48.730;9.136;2022-10-26T16:28:49;19.90;95.70
31113;DHT22;17763;48.730;9.136;2022-10-26T16:31:17;19.80;95.80
31113;DHT22;17763;48.730;9.136;2022-10-26T16:33:43;19.80;96.00
31113;DHT22;17763;48.730;9.136;2022-10-26T16:36:11;19.70;96.30
31113;DHT22;17763;48.730;9.136;2022-10-26T16:38:37;19.70;96.60
31113;DHT22;17763;48.730;9.136;2022-10-26T16:41:13;19.60;96.80
31113;DHT22;17763;48.730;9.136;2022-10-26T16:43:41;19.60;97.00
31113;DHT22;17763;48.730;9.136;2022-10-26T16:46:18;19.50;97.30
31113;DHT22;17763;48.730;9.136;2022-10-26T16:48:45;19.50;97.60
31113;DHT22;17763;48.730;9.136;2022-10-26T16:53:41;19.40;98.20
31113;DHT22;17763;48.730;9.136;2022-10-26T16:56:10;19.30;98.50
31113;DHT22;17763;48.730;9.136;2022-10-26T16:58:36;19.20;98.70
31113;DHT22;17763;48.730;9.136;2022-10-26T17:01:02;19.20;99.00
31113;DHT22;17763;48.730;9.136;2022-10-26T17:03:28;19.10;99.30
31113;DHT22;17763;48.730;9.136;2022-10-26T17:05:58;19.10;99.50
31113;DHT22;17763;48.730;9.136;2022-10-26T17:08:25;19.00;99.70
31113;DHT22;17763;48.730;9.136;2022-10-26T17:10:54;19.00;99.80
31113;DHT22;17763;48.730;9.136;2022-10-26T17:13:20;18.90;99.90
31113;DHT22;17763;48.730;9.136;2022-10-26T17:15:46;18.80;99.90
31113;DHT22;17763;48.730;9.136;2022-10-26T17:18:12;18.80;99.90
31113;DHT22;17763;48.730;9.136;2022-10-26T17:20:48;18.80;99.90
31113;DHT22;17763;48.730;9.136;2022-10-26T17:23:14;18.80;99.90
31113;DHT22;17763;48.730;9.136;2022-10-26T17:25:39;18.70;99.90
31113;DHT22;17763;48.730;9.136;2022-10-26T17:28:07;18.70;99.90
31113;DHT22;17763;48.730;9.136;2022-10-26T17:30:33;18.70;99.90
31113;DHT22;17763;48.730;9.136;2022-10-26T17:33:01;18.60;99.90
31113;DHT22;17763;48.730;9.136;2022-10-26T17:35:27;18.60;99.90
31113;DHT22;17763;48.730;9.136;2022-10-26T17:37:52;18.60;99.90
31113;DHT22;17763;48.730;9.136;2022-10-26T17:40:18;18.60;99.90
31113;DHT22;17763;48.730;9.136;2022-10-26T17:42:44;18.50;99.90
31113;DHT22;17763;48.730;9.136;2022-10-26T17:45:12;18.50;99.90
31113;DHT22;17763;48.730;9.136;2022-10-26T17:47:38;18.50;99.90
31113;DHT22;17763;48.730;9.136;2022-10-26T17:50:04;18.50;99.90
31113;DHT22;17763;48.730;9.136;2022-10-26T17:52:32;18.50;99.90
31113;DHT22;17763;48.730;9.136;2022-10-26T17:55:01;18.50;99.90
31113;DHT22;17763;48.730;9.136;2022-10-26T17:57:26;18.40;99.90
31113;DHT22;17763;48.730;9.136;2022-10-26T17:59:52;18.40;99.90
31113;DHT22;17763;48.730;9.136;2022-10-26T18:02:18;18.40;99.90
31113;DHT22;17763;48.730;9.136;2022-10-26T18:04:43;18.40;99.90
31113;DHT22;17763;48.730;9.136;2022-10-26T18:07:10;18.40;99.90
31113;DHT22;17763;48.730;9.136;2022-10-26T18:09:36;18.40;99.90
31113;DHT22;17763;48.730;9.136;2022-10-26T18:12:02;18.40;99.90
31113;DHT22;17763;48.730;9.136;2022-10-26T18:14:28;18.40;99.90
31113;DHT22;17763;48.730;9.136;2022-10-26T18:16:56;18.30;99.90
31113;DHT22;17763;48.730;9.136;2022-10-26T18:19:24;18.30;99.90
31113;DHT22;17763;48.730;9.136;2022-10-26T18:21:50;18.20;99.90
31113;DHT22;17763;48.730;9.136;2022-10-26T18:24:16;18.20;99.90
31113;DHT22;17763;48.730;9.136;2022-10-26T18:26:42;18.20;99.90
31113;DHT22;17763;48.730;9.136;2022-10-26T18:29:11;18.10;99.90